sensor_id;sensor_type;location;lat;lon;timestamp;temperature;humidity
17918;DHT22;9084;50.956;3.106;2022-10-04T00:03:26;11.00;99.90
17918;DHT22;9084;50.956;3.106;2022-10-04T00:05:54;11.00;99.90
17918;DHT22;9084;50.956;3.106;2022-10-04T00:08:37;11.00;99.90
17918;DHT22;9084;50.956;3.106;2022-10-04T00:14:00;11.00;99.90
17918;DHT22;9084;50.956;3.106;2022-10-04T00:16:32;11.00;99.90
17918;DHT22;9084;50.956;3.106;2022-10-04T00:19:20;11.00;99.90
17918;DHT22;9084;50.956;3.106;2022-10-04T00:24:26;11.00;99.90
17918;DHT22;9084;50.956;3.106;2022-10-04T00:29:31;11.00;99.90
17918;DHT22;9084;50.956;3.106;2022-10-04T00:34:48;10.90;99.90
17918;DHT22;9084;50.956;3.106;2022-10-04T00:37:18;10.90;99.90
17918;DHT22;9084;50.956;3.106;2022-10-04T00:40:10;10.90;99.90
17918;DHT22;9084;50.956;3.106;2022-10-04T00:45:49;10.80;99.90
17918;DHT22;9084;50.956;3.106;2022-10-04T00:48:49;10.80;99.90
17918;DHT22;9084;50.956;3.106;2022-10-04T00:51:33;10.80;99.90
17918;DHT22;9084;50.956;3.106;2022-10-04T00:54:26;10.80;99.90
17918;DHT22;9084;50.956;3.106;2022-10-04T00:57:06;10.70;99.90
17918;DHT22;9084;50.956;3.106;2022-10-04T00:59:48;10.70;99.90
17918;DHT22;9084;50.956;3.106;2022-10-04T01:08:07;10.70;99.90
17918;DHT22;9084;50.956;3.106;2022-10-04T01:13:24;10.60;99.90
17918;DHT22;9084;50.956;3.106;2022-10-04T01:16:00;10.60;99.90
17918;DHT22;9084;50.956;3.106;2022-10-04T01:18:34;10.60;99.90
17918;DHT22;9084;50.956;3.106;2022-10-04T01:23:50;10.60;99.90
17918;DHT22;9084;50.956;3.106;2022-10-04T01:31:27;10.60;99.90
17918;DHT22;9084;50.956;3.106;2022-10-04T01:33:54;10.50;99.90
17918;DHT22;9084;50.956;3.106;2022-10-04T01:36:23;10.50;99.90
17918;DHT22;9084;50.956;3.106;2022-10-04T01:38:48;10.60;99.90
17918;DHT22;9084;50.956;3.106;2022-10-04T01:41:21;10.60;99.90
17918;DHT22;9084;50.956;3.106;2022-10-04T01:43:53;10.50;99.90
17918;DHT22;9084;50.956;3.106;2022-10-04T01:46:32;10.50;99.90
17918;DHT22;9084;50.956;3.106;2022-10-04T01:49:06;10.50;99.90
17918;DHT22;9084;50.956;3.106;2022-10-04T01:51:37;10.50;99.90
17918;DHT22;9084;50.956;3.106;2022-10-04T01:54:10;10.50;99.90
17918;DHT22;9084;50.956;3.106;2022-10-04T01:56:55;10.50;99.90
17918;DHT22;9084;50.956;3.106;2022-10-04T01:59:27;10.50;99.90
17918;DHT22;9084;50.956;3.106;2022-10-04T02:04:37;10.40;99.90
17918;DHT22;9084;50.956;3.106;2022-10-04T02:07:10;10.40;99.90
17918;DHT22;9084;50.956;3.106;2022-10-04T02:09:40;10.40;99.90
17918;DHT22;9084;50.956;3.106;2022-10-04T02:12:09;10.40;99.90
17918;DHT22;9084;50.956;3.106;2022-10-04T02:14:45;10.40;99.90
17918;DHT22;9084;50.956;3.106;2022-10-04T02:17:15;10.40;99.90
17918;DHT22;9084;50.956;3.106;2022-10-04T02:19:42;10.40;99.90
17918;DHT22;9084;50.956;3.106;2022-10-04T02:22:10;10.30;99.90
17918;DHT22;9084;50.956;3.106;2022-10-04T02:24:42;10.30;99.90
17918;DHT22;9084;50.956;3.106;2022-10-04T02:27:08;10.30;99.90
17918;DHT22;9084;50.956;3.106;2022-10-04T02:29:36;10.30;99.90
17918;DHT22;9084;50.956;3.106;2022-10-04T02:32:06;10.30;99.90
17918;DHT22;9084;50.956;3.106;2022-10-04T02:34:51;10.30;99.90
17918;DHT22;9084;50.956;3.106;2022-10-04T02:37:22;10.30;99.90
17918;DHT22;9084;50.956;3.106;2022-10-04T02:40:07;10.30;99.90
17918;DHT22;9084;50.956;3.106;2022-10-04T02:42:49;10.30;99.90
17918;DHT22;9084;50.956;3.106;2022-10-04T02:47:59;10.30;99.90
17918;DHT22;9084;50.956;3.106;2022-10-04T02:50:34;10.30;99.90
17918;DHT22;9084;50.956;3.106;2022-10-04T02:53:28;10.30;99.90
17918;DHT22;9084;50.956;3.106;2022-10-04T02:55:56;10.30;99.90
17918;DHT22;9084;50.956;3.106;2022-10-04T02:58:25;10.30;99.90
17918;DHT22;9084;50.956;3.106;2022-10-04T03:01:00;10.30;99.90
17918;DHT22;9084;50.956;3.106;2022-10-04T03:03:45;10.30;99.90
17918;DHT22;9084;50.956;3.106;2022-10-04T03:06:16;10.30;99.90
17918;DHT22;9084;50.956;3.106;2022-10-04T03:08:54;10.20;99.90
17918;DHT22;9084;50.956;3.106;2022-10-04T03:11:30;10.20;99.90
17918;DHT22;9084;50.956;3.106;2022-10-04T03:14:02;10.20;99.90
17918;DHT22;9084;50.956;3.106;2022-10-04T03:16:37;10.20;99.90
17918;DHT22;9084;50.956;3.106;2022-10-04T03:19:05;10.20;99.90
17918;DHT22;9084;50.956;3.106;2022-10-04T03:21:36;10.20;99.90
17918;DHT22;9084;50.956;3.106;2022-10-04T03:24:06;10.20;99.90
17918;DHT22;9084;50.956;3.106;2022-10-04T03:26:41;10.10;99.90
17918;DHT22;9084;50.956;3.106;2022-10-04T03:29:12;10.10;99.90
17918;DHT22;9084;50.956;3.106;2022-10-04T03:31:46;10.10;99.90
17918;DHT22;9084;50.956;3.106;2022-10-04T03:34:16;10.10;99.90
17918;DHT22;9084;50.956;3.106;2022-10-04T03:36:43;10.10;99.90
17918;DHT22;9084;50.956;3.106;2022-10-04T03:39:11;10.10;99.90
17918;DHT22;9084;50.956;3.106;2022-10-04T03:41:44;10.10;99.90
17918;DHT22;9084;50.956;3.106;2022-10-04T03:44:14;10.10;99.90
17918;DHT22;9084;50.956;3.106;2022-10-04T03:46:44;10.00;99.90
17918;DHT22;9084;50.956;3.106;2022-10-04T03:49:18;10.10;99.90
17918;DHT22;9084;50.956;3.106;2022-10-04T03:51:50;10.00;99.90
17918;DHT22;9084;50.956;3.106;2022-10-04T03:54:20;10.00;99.90
17918;DHT22;9084;50.956;3.106;2022-10-04T03:56:49;10.00;99.90
17918;DHT22;9084;50.956;3.106;2022-10-04T03:59:18;10.00;99.90
17918;DHT22;9084;50.956;3.106;2022-10-04T04:01:50;10.00;99.90
17918;DHT22;9084;50.956;3.106;2022-10-04T04:07:05;9.90;99.90
17918;DHT22;9084;50.956;3.106;2022-10-04T04:09:53;9.90;99.90
17918;DHT22;9084;50.956;3.106;2022-10-04T04:12:45;9.90;99.90
17918;DHT22;9084;50.956;3.106;2022-10-04T04:15:13;9.90;99.90
17918;DHT22;9084;50.956;3.106;2022-10-04T04:17:45;9.90;99.90
17918;DHT22;9084;50.956;3.106;2022-10-04T04:23:10;9.80;99.90
17918;DHT22;9084;50.956;3.106;2022-10-04T04:25:39;9.80;99.90
17918;DHT22;9084;50.956;3.106;2022-10-04T04:28:28;9.90;99.90
17918;DHT22;9084;50.956;3.106;2022-10-04T04:31:08;9.70;99.90
17918;DHT22;9084;50.956;3.106;2022-10-04T04:33:50;9.90;99.90
17918;DHT22;9084;50.956;3.106;2022-10-04T04:36:20;9.80;99.90
17918;DHT22;9084;50.956;3.106;2022-10-04T04:38:46;9.80;99.90
17918;DHT22;9084;50.956;3.106;2022-10-04T04:41:33;9.80;99.90
17918;DHT22;9084;50.956;3.106;2022-10-04T04:44:16;9.80;99.90
17918;DHT22;9084;50.956;3.106;2022-10-04T04:46:46;9.80;99.90
17918;DHT22;9084;50.956;3.106;2022-10-04T04:49:15;9.80;99.90
17918;DHT22;9084;50.956;3.106;2022-10-04T04:51:47;9.80;99.90
17918;DHT22;9084;50.956;3.106;2022-10-04T04:54:15;9.80;99.90
17918;DHT22;9084;50.956;3.106;2022-10-04T04:56:42;9.80;99.90
17918;DHT22;9084;50.956;3.106;2022-10-04T04:59:08;9.70;99.90
17918;DHT22;9084;50.956;3.106;2022-10-04T05:01:46;9.70;99.90
17918;DHT22;9084;50.956;3.106;2022-10-04T05:06:58;9.70;99.90
17918;DHT22;9084;50.956;3.106;2022-10-04T05:09:33;9.60;99.90
17918;DHT22;9084;50.956;3.106;2022-10-04T05:14:38;9.60;99.90
17918;DHT22;9084;50.956;3.106;2022-10-04T05:17:05;9.60;99.90
17918;DHT22;9084;50.956;3.106;2022-10-04T05:19:37;9.50;99.90
17918;DHT22;9084;50.956;3.106;2022-10-04T05:22:09;9.50;99.90
17918;DHT22;9084;50.956;3.106;2022-10-04T05:24:41;9.50;99.90
17918;DHT22;9084;50.956;3.106;2022-10-04T05:27:17;9.50;99.90
17918;DHT22;9084;50.956;3.106;2022-10-04T05:30:05;9.50;99.90
17918;DHT22;9084;50.956;3.106;2022-10-04T05:32:59;9.40;99.90
17918;DHT22;9084;50.956;3.106;2022-10-04T05:35:26;9.40;99.90
17918;DHT22;9084;50.956;3.106;2022-10-04T05:38:48;9.40;99.90
17918;DHT22;9084;50.956;3.106;2022-10-04T05:41:27;9.40;99.90
17918;DHT22;9084;50.956;3.106;2022-10-04T05:43:56;9.50;99.90
17918;DHT22;9084;50.956;3.106;2022-10-04T05:46:30;9.50;99.90
17918;DHT22;9084;50.956;3.106;2022-10-04T05:49:06;9.40;99.90
17918;DHT22;9084;50.956;3.106;2022-10-04T05:51:34;9.40;99.90
17918;DHT22;9084;50.956;3.106;2022-10-04T05:54:12;9.40;99.90
17918;DHT22;9084;50.956;3.106;2022-10-04T06:05:08;9.60;99.90
17918;DHT22;9084;50.956;3.106;2022-10-04T06:13:06;9.80;99.90
17918;DHT22;9084;50.956;3.106;2022-10-04T06:21:59;10.00;99.90
17918;DHT22;9084;50.956;3.106;2022-10-04T06:24:34;10.10;99.90
17918;DHT22;9084;50.956;3.106;2022-10-04T06:30:12;10.20;99.90
17918;DHT22;9084;50.956;3.106;2022-10-04T06:41:06;10.30;99.90
17918;DHT22;9084;50.956;3.106;2022-10-04T06:43:59;10.40;99.90
17918;DHT22;9084;50.956;3.106;2022-10-04T06:46:49;10.40;99.90
17918;DHT22;9084;50.956;3.106;2022-10-04T06:49:32;10.40;99.90
17918;DHT22;9084;50.956;3.106;2022-10-04T06:58:15;10.60;99.90
17918;DHT22;9084;50.956;3.106;2022-10-04T07:01:13;10.60;99.90
17918;DHT22;9084;50.956;3.106;2022-10-04T07:06:28;10.70;99.90
17918;DHT22;9084;50.956;3.106;2022-10-04T07:08:55;10.80;99.90
17918;DHT22;9084;50.956;3.106;2022-10-04T07:11:52;10.80;99.90
17918;DHT22;9084;50.956;3.106;2022-10-04T07:14:27;10.90;99.90
17918;DHT22;9084;50.956;3.106;2022-10-04T07:16:57;11.00;99.90
17918;DHT22;9084;50.956;3.106;2022-10-04T07:19:31;11.00;99.90
17918;DHT22;9084;50.956;3.106;2022-10-04T07:25:19;11.10;99.90
17918;DHT22;9084;50.956;3.106;2022-10-04T07:31:19;11.20;99.90
17918;DHT22;9084;50.956;3.106;2022-10-04T07:33:50;11.30;99.90
17918;DHT22;9084;50.956;3.106;2022-10-04T07:36:21;11.30;99.90
17918;DHT22;9084;50.956;3.106;2022-10-04T07:39:12;11.40;99.90
17918;DHT22;9084;50.956;3.106;2022-10-04T07:41:51;11.50;99.90
17918;DHT22;9084;50.956;3.106;2022-10-04T07:44:36;11.50;99.90
17918;DHT22;9084;50.956;3.106;2022-10-04T07:47:18;11.60;99.90
17918;DHT22;9084;50.956;3.106;2022-10-04T07:49:45;11.70;99.90
17918;DHT22;9084;50.956;3.106;2022-10-04T07:55:31;11.90;99.90
17918;DHT22;9084;50.956;3.106;2022-10-04T08:12:30;12.20;99.90
17918;DHT22;9084;50.956;3.106;2022-10-04T08:15:24;12.30;99.90
17918;DHT22;9084;50.956;3.106;2022-10-04T08:23:45;12.30;99.90
17918;DHT22;9084;50.956;3.106;2022-10-04T08:26:36;12.30;99.90
17918;DHT22;9084;50.956;3.106;2022-10-04T08:35:19;12.40;99.90
17918;DHT22;9084;50.956;3.106;2022-10-04T08:38:17;12.40;99.90
17918;DHT22;9084;50.956;3.106;2022-10-04T08:54:42;12.10;99.90
17918;DHT22;9084;50.956;3.106;2022-10-04T09:05:31;12.20;99.90
17918;DHT22;9084;50.956;3.106;2022-10-04T09:18:49;12.60;99.90
17918;DHT22;9084;50.956;3.106;2022-10-04T09:21:38;12.70;99.90
17918;DHT22;9084;50.956;3.106;2022-10-04T09:27:10;12.90;99.90
17918;DHT22;9084;50.956;3.106;2022-10-04T09:30:13;13.00;99.90
17918;DHT22;9084;50.956;3.106;2022-10-04T09:42:25;13.20;99.90
17918;DHT22;9084;50.956;3.106;2022-10-04T09:44:48;13.10;99.90
17918;DHT22;9084;50.956;3.106;2022-10-04T09:47:26;13.20;99.90
17918;DHT22;9084;50.956;3.106;2022-10-04T09:55:56;13.30;99.90
17918;DHT22;9084;50.956;3.106;2022-10-04T10:06:30;13.60;99.90
17918;DHT22;9084;50.956;3.106;2022-10-04T10:09:16;13.90;99.90
17918;DHT22;9084;50.956;3.106;2022-10-04T10:17:50;14.10;99.90
17918;DHT22;9084;50.956;3.106;2022-10-04T10:25:51;14.30;99.90
17918;DHT22;9084;50.956;3.106;2022-10-04T10:31:39;14.50;99.90
17918;DHT22;9084;50.956;3.106;2022-10-04T10:39:47;14.70;99.90
17918;DHT22;9084;50.956;3.106;2022-10-04T10:42:23;14.80;99.90
17918;DHT22;9084;50.956;3.106;2022-10-04T10:50:52;15.00;99.90
17918;DHT22;9084;50.956;3.106;2022-10-04T10:53:50;15.10;99.90
17918;DHT22;9084;50.956;3.106;2022-10-04T11:05:03;15.30;99.90
17918;DHT22;9084;50.956;3.106;2022-10-04T11:07:52;15.30;99.90
17918;DHT22;9084;50.956;3.106;2022-10-04T11:26:58;15.80;99.90
17918;DHT22;9084;50.956;3.106;2022-10-04T11:29:39;15.80;99.90
17918;DHT22;9084;50.956;3.106;2022-10-04T11:38:54;16.00;99.90
17918;DHT22;9084;50.956;3.106;2022-10-04T11:41:16;16.10;99.90
17918;DHT22;9084;50.956;3.106;2022-10-04T11:43:55;16.20;99.90
17918;DHT22;9084;50.956;3.106;2022-10-04T11:46:46;16.20;99.90
17918;DHT22;9084;50.956;3.106;2022-10-04T11:58:08;16.50;99.90
17918;DHT22;9084;50.956;3.106;2022-10-04T12:09:33;16.80;99.90
17918;DHT22;9084;50.956;3.106;2022-10-04T12:15:05;16.90;99.90
17918;DHT22;9084;50.956;3.106;2022-10-04T12:17:43;17.00;99.90
17918;DHT22;9084;50.956;3.106;2022-10-04T12:34:20;17.40;99.90
17918;DHT22;9084;50.956;3.106;2022-10-04T12:45:44;17.90;99.90
17918;DHT22;9084;50.956;3.106;2022-10-04T12:48:35;18.10;99.90
17918;DHT22;9084;50.956;3.106;2022-10-04T12:51:33;18.20;99.90
17918;DHT22;9084;50.956;3.106;2022-10-04T12:59:44;18.30;99.90
17918;DHT22;9084;50.956;3.106;2022-10-04T13:10:41;18.60;99.80
17918;DHT22;9084;50.956;3.106;2022-10-04T13:19:32;19.10;87.90
17918;DHT22;9084;50.956;3.106;2022-10-04T13:22:21;19.30;66.70
17918;DHT22;9084;50.956;3.106;2022-10-04T13:25:08;19.40;58.80
17918;DHT22;9084;50.956;3.106;2022-10-04T13:30:23;19.50;65.70
17918;DHT22;9084;50.956;3.106;2022-10-04T13:35:36;19.30;71.70
17918;DHT22;9084;50.956;3.106;2022-10-04T13:48:59;19.20;81.10
17918;DHT22;9084;50.956;3.106;2022-10-04T13:54:33;19.20;78.60
17918;DHT22;9084;50.956;3.106;2022-10-04T13:57:20;19.20;81.40
17918;DHT22;9084;50.956;3.106;2022-10-04T13:59:58;19.10;80.80
17918;DHT22;9084;50.956;3.106;2022-10-04T14:06:00;18.80;92.20
17918;DHT22;9084;50.956;3.106;2022-10-04T14:42:54;18.80;87.30
17918;DHT22;9084;50.956;3.106;2022-10-04T14:45:41;18.90;74.00
17918;DHT22;9084;50.956;3.106;2022-10-04T14:51:16;18.90;68.10
17918;DHT22;9084;50.956;3.106;2022-10-04T14:54:11;18.90;72.50
17918;DHT22;9084;50.956;3.106;2022-10-04T15:15:33;18.70;83.80
17918;DHT22;9084;50.956;3.106;2022-10-04T15:27:01;18.60;93.90
17918;DHT22;9084;50.956;3.106;2022-10-04T15:43:41;18.00;99.90
17918;DHT22;9084;50.956;3.106;2022-10-04T15:46:30;17.90;99.90
17918;DHT22;9084;50.956;3.106;2022-10-04T16:00:38;17.80;99.90
17918;DHT22;9084;50.956;3.106;2022-10-04T16:03:24;17.80;99.90
17918;DHT22;9084;50.956;3.106;2022-10-04T16:14:59;18.00;99.90
17918;DHT22;9084;50.956;3.106;2022-10-04T16:22:33;17.80;99.90
17918;DHT22;9084;50.956;3.106;2022-10-04T16:35:32;17.50;99.90
17918;DHT22;9084;50.956;3.106;2022-10-04T16:43:25;17.40;99.90
17918;DHT22;9084;50.956;3.106;2022-10-04T16:57:24;17.20;99.90
17918;DHT22;9084;50.956;3.106;2022-10-04T16:59:57;17.10;99.90
17918;DHT22;9084;50.956;3.106;2022-10-04T17:13:22;16.90;99.90
17918;DHT22;9084;50.956;3.106;2022-10-04T17:16:03;16.80;99.90
17918;DHT22;9084;50.956;3.106;2022-10-04T17:21:52;16.80;99.90
17918;DHT22;9084;50.956;3.106;2022-10-04T17:24:47;16.70;99.90
17918;DHT22;9084;50.956;3.106;2022-10-04T17:35:45;16.40;99.90
17918;DHT22;9084;50.956;3.106;2022-10-04T17:38:19;16.40;99.90
17918;DHT22;9084;50.956;3.106;2022-10-04T17:44:11;16.30;99.90
17918;DHT22;9084;50.956;3.106;2022-10-04T17:46:54;16.30;99.90
17918;DHT22;9084;50.956;3.106;2022-10-04T17:49:26;16.20;99.90
17918;DHT22;9084;50.956;3.106;2022-10-04T17:52:20;16.20;99.90
17918;DHT22;9084;50.956;3.106;2022-10-04T17:55:26;16.00;99.90
17918;DHT22;9084;50.956;3.106;2022-10-04T17:57:54;15.90;99.90
17918;DHT22;9084;50.956;3.106;2022-10-04T18:00:25;15.90;99.90
17918;DHT22;9084;50.956;3.106;2022-10-04T18:03:21;15.90;99.90
17918;DHT22;9084;50.956;3.106;2022-10-04T18:05:56;15.90;99.90
17918;DHT22;9084;50.956;3.106;2022-10-04T18:08:48;15.90;99.90
17918;DHT22;9084;50.956;3.106;2022-10-04T18:11:43;16.00;99.90
17918;DHT22;9084;50.956;3.106;2022-10-04T18:17:08;16.10;99.90
17918;DHT22;9084;50.956;3.106;2022-10-04T18:22:18;16.10;99.90
17918;DHT22;9084;50.956;3.106;2022-10-04T18:24:46;16.10;99.90
17918;DHT22;9084;50.956;3.106;2022-10-04T18:27:22;16.10;99.90
17918;DHT22;9084;50.956;3.106;2022-10-04T18:30:16;16.10;99.90
17918;DHT22;9084;50.956;3.106;2022-10-04T18:32:51;16.20;99.90
17918;DHT22;9084;50.956;3.106;2022-10-04T18:35:32;16.20;99.90
17918;DHT22;9084;50.956;3.106;2022-10-04T18:40:52;16.20;99.90
17918;DHT22;9084;50.956;3.106;2022-10-04T18:43:28;16.10;99.90
17918;DHT22;9084;50.956;3.106;2022-10-04T18:46:09;16.10;99.90
17918;DHT22;9084;50.956;3.106;2022-10-04T18:48:43;16.10;99.90
17918;DHT22;9084;50.956;3.106;2022-10-04T18:51:28;16.10;99.90
17918;DHT22;9084;50.956;3.106;2022-10-04T18:56:33;16.10;99.90
17918;DHT22;9084;50.956;3.106;2022-10-04T18:59:11;16.10;99.90
17918;DHT22;9084;50.956;3.106;2022-10-04T19:07:15;16.00;99.90
17918;DHT22;9084;50.956;3.106;2022-10-04T19:20:46;16.10;99.90
17918;DHT22;9084;50.956;3.106;2022-10-04T19:23:49;16.10;99.90
17918;DHT22;9084;50.956;3.106;2022-10-04T19:26:28;16.10;99.90
17918;DHT22;9084;50.956;3.106;2022-10-04T19:35:21;16.20;99.90
17918;DHT22;9084;50.956;3.106;2022-10-04T19:38:19;16.20;99.90
17918;DHT22;9084;50.956;3.106;2022-10-04T19:40:49;16.20;99.90
17918;DHT22;9084;50.956;3.106;2022-10-04T19:46:35;16.20;99.90
17918;DHT22;9084;50.956;3.106;2022-10-04T19:49:10;16.20;99.90
17918;DHT22;9084;50.956;3.106;2022-10-04T19:51:46;16.20;99.90
17918;DHT22;9084;50.956;3.106;2022-10-04T19:54:22;16.20;99.90
17918;DHT22;9084;50.956;3.106;2022-10-04T19:56:55;16.20;99.90
17918;DHT22;9084;50.956;3.106;2022-10-04T19:59:38;16.20;99.90
17918;DHT22;9084;50.956;3.106;2022-10-04T20:02:15;16.20;99.90
17918;DHT22;9084;50.956;3.106;2022-10-04T20:04:41;16.20;99.90
17918;DHT22;9084;50.956;3.106;2022-10-04T20:07:18;16.10;99.90
17918;DHT22;9084;50.956;3.106;2022-10-04T20:09:51;16.10;99.90
17918;DHT22;9084;50.956;3.106;2022-10-04T20:15:40;16.10;99.90
17918;DHT22;9084;50.956;3.106;2022-10-04T20:26:41;16.00;99.90
17918;DHT22;9084;50.956;3.106;2022-10-04T20:32:04;16.00;99.90
17918;DHT22;9084;50.956;3.106;2022-10-04T20:37:10;16.00;99.90
17918;DHT22;9084;50.956;3.106;2022-10-04T20:44:57;16.00;99.90
17918;DHT22;9084;50.956;3.106;2022-10-04T20:47:42;16.00;99.90
17918;DHT22;9084;50.956;3.106;2022-10-04T20:53:04;16.00;99.90
17918;DHT22;9084;50.956;3.106;2022-10-04T20:55:35;16.00;99.90
17918;DHT22;9084;50.956;3.106;2022-10-04T20:58:26;15.90;99.90
17918;DHT22;9084;50.956;3.106;2022-10-04T21:00:57;15.90;99.90
17918;DHT22;9084;50.956;3.106;2022-10-04T21:03:29;15.90;99.90
17918;DHT22;9084;50.956;3.106;2022-10-04T21:06:07;15.90;99.90
17918;DHT22;9084;50.956;3.106;2022-10-04T21:08:37;15.90;99.90
17918;DHT22;9084;50.956;3.106;2022-10-04T21:13:58;15.90;99.90
17918;DHT22;9084;50.956;3.106;2022-10-04T21:16:44;15.80;99.90
17918;DHT22;9084;50.956;3.106;2022-10-04T21:22:34;15.80;99.90
17918;DHT22;9084;50.956;3.106;2022-10-04T21:25:00;15.80;99.90
17918;DHT22;9084;50.956;3.106;2022-10-04T21:27:37;15.80;99.90
17918;DHT22;9084;50.956;3.106;2022-10-04T21:30:15;15.80;99.90
17918;DHT22;9084;50.956;3.106;2022-10-04T21:32:41;15.80;99.90
17918;DHT22;9084;50.956;3.106;2022-10-04T21:35:08;15.80;99.90
17918;DHT22;9084;50.956;3.106;2022-10-04T21:37:34;15.70;99.90
17918;DHT22;9084;50.956;3.106;2022-10-04T21:40:01;15.80;99.90
17918;DHT22;9084;50.956;3.106;2022-10-04T21:42:27;15.70;99.90
17918;DHT22;9084;50.956;3.106;2022-10-04T21:44:55;15.70;99.90
17918;DHT22;9084;50.956;3.106;2022-10-04T21:47:24;15.80;99.90
17918;DHT22;9084;50.956;3.106;2022-10-04T21:49:50;15.70;99.90
17918;DHT22;9084;50.956;3.106;2022-10-04T21:52:17;15.70;99.90
17918;DHT22;9084;50.956;3.106;2022-10-04T21:54:45;15.70;99.90
17918;DHT22;9084;50.956;3.106;2022-10-04T21:57:12;15.70;99.90
17918;DHT22;9084;50.956;3.106;2022-10-04T21:59:40;15.70;99.90
17918;DHT22;9084;50.956;3.106;2022-10-04T22:02:05;15.70;99.90
17918;DHT22;9084;50.956;3.106;2022-10-04T22:04:32;15.70;99.90
17918;DHT22;9084;50.956;3.106;2022-10-04T22:06:58;15.70;99.90
17918;DHT22;9084;50.956;3.106;2022-10-04T22:09:24;15.70;99.90
17918;DHT22;9084;50.956;3.106;2022-10-04T22:11:53;15.70;99.90
17918;DHT22;9084;50.956;3.106;2022-10-04T22:14:18;15.70;99.90
17918;DHT22;9084;50.956;3.106;2022-10-04T22:16:44;15.70;99.90
17918;DHT22;9084;50.956;3.106;2022-10-04T22:19:13;15.70;99.90
17918;DHT22;9084;50.956;3.106;2022-10-04T22:21:39;15.70;99.90
17918;DHT22;9084;50.956;3.106;2022-10-04T22:24:13;15.70;99.90
17918;DHT22;9084;50.956;3.106;2022-10-04T22:26:40;15.70;99.90
17918;DHT22;9084;50.956;3.106;2022-10-04T22:29:14;15.80;99.90
17918;DHT22;9084;50.956;3.106;2022-10-04T22:31:48;15.70;99.90
17918;DHT22;9084;50.956;3.106;2022-10-04T22:34:15;15.70;99.90
17918;DHT22;9084;50.956;3.106;2022-10-04T22:36:42;15.70;99.90
17918;DHT22;9084;50.956;3.106;2022-10-04T22:39:14;15.70;99.90
17918;DHT22;9084;50.956;3.106;2022-10-04T22:41:52;15.70;99.90
17918;DHT22;9084;50.956;3.106;2022-10-04T22:44:24;15.60;99.90
17918;DHT22;9084;50.956;3.106;2022-10-04T22:46:52;15.60;99.90
17918;DHT22;9084;50.956;3.106;2022-10-04T22:49:25;15.60;99.90
17918;DHT22;9084;50.956;3.106;2022-10-04T22:51:58;15.50;99.90
17918;DHT22;9084;50.956;3.106;2022-10-04T22:54:30;15.50;99.90
17918;DHT22;9084;50.956;3.106;2022-10-04T22:56:57;15.50;99.90
17918;DHT22;9084;50.956;3.106;2022-10-04T22:59:36;15.50;99.90
17918;DHT22;9084;50.956;3.106;2022-10-04T23:02:07;15.50;99.90
17918;DHT22;9084;50.956;3.106;2022-10-04T23:04:43;15.50;99.90
17918;DHT22;9084;50.956;3.106;2022-10-04T23:07:09;15.50;99.90
17918;DHT22;9084;50.956;3.106;2022-10-04T23:09:34;15.50;99.90
17918;DHT22;9084;50.956;3.106;2022-10-04T23:12:01;15.50;99.90
17918;DHT22;9084;50.956;3.106;2022-10-04T23:14:27;15.50;99.90
17918;DHT22;9084;50.956;3.106;2022-10-04T23:16:53;15.50;99.90
17918;DHT22;9084;50.956;3.106;2022-10-04T23:19:21;15.60;99.90
17918;DHT22;9084;50.956;3.106;2022-10-04T23:21:48;15.60;99.90
17918;DHT22;9084;50.956;3.106;2022-10-04T23:24:22;15.60;99.90
17918;DHT22;9084;50.956;3.106;2022-10-04T23:26:53;15.60;99.90
17918;DHT22;9084;50.956;3.106;2022-10-04T23:29:29;15.60;99.90
17918;DHT22;9084;50.956;3.106;2022-10-04T23:31:56;15.60;99.90
17918;DHT22;9084;50.956;3.106;2022-10-04T23:34:33;15.60;99.90
17918;DHT22;9084;50.956;3.106;2022-10-04T23:37:01;15.60;99.90
17918;DHT22;9084;50.956;3.106;2022-10-04T23:39:31;15.70;99.90
17918;DHT22;9084;50.956;3.106;2022-10-04T23:41:58;15.60;99.90
17918;DHT22;9084;50.956;3.106;2022-10-04T23:44:32;15.60;99.90
17918;DHT22;9084;50.956;3.106;2022-10-04T23:46:58;15.60;99.90
17918;DHT22;9084;50.956;3.106;2022-10-04T23:49:24;15.60;99.90
17918;DHT22;9084;50.956;3.106;2022-10-04T23:51:54;15.60;99.90
17918;DHT22;9084;50.956;3.106;2022-10-04T23:54:21;15.60;99.90
17918;DHT22;9084;50.956;3.106;2022-10-04T23:56:46;15.60;99.90
17918;DHT22;9084;50.956;3.106;2022-10-04T23:59:20;15.60;99.90
